Data for 09/14/2018

Time Sea-Level Adjusted Pressure Absolute Pressure Temperature Relative Humidity Dew Point   
(mb) (inHg) (mb) (inHg) (C) (F) (%) (C) (F)
00:05 1021 30.15 850 25.1 5.4 41.8 74 1.1 34
00:10 1021 30.15 850 25.1 5.4 41.7 75 1.3 34.3
00:15 1021 30.15 850 25.1 5.1 41.1 76 1.2 34.2
00:20 1021 30.15 850 25.1 5 41 75 1 33.8
00:25 1021 30.15 850 25.1 5.3 41.5 75 1.2 34.1
00:30 1021 30.15 850 25.1 5.4 41.7 74 1.2 34.2
00:35 1021 30.15 850 25.1 5.3 41.6 75 1.2 34.2
00:40 1021 30.15 850 25.1 5.3 41.5 75 1.2 34.2
00:45 1021 30.15 850 25.1 5.4 41.7 75 1.3 34.3
00:50 1021 30.15 850 25.1 5.4 41.8 75 1.3 34.3
00:55 1021 30.15 850 25.1 5.5 41.8 74 1.3 34.3
01:00 1021 30.15 850 25.1 5.7 42.3 74 1.4 34.5
01:05 1021 30.15 850 25.1 5.6 42.1 74 1.3 34.4
01:10 1021 30.15 850 25.1 5.7 42.2 73 1.2 34.2
01:15 1021 30.15 850 25.1 5.7 42.2 73 1.3 34.4
01:20 1021 30.15 851 25.13 5.7 42.3 73 1.2 34.2
01:25 1021 30.15 850 25.1 5.7 42.2 73 1.3 34.3
01:30 1021 30.15 850 25.1 5.5 41.9 74 1.2 34.1
01:35 1021 30.15 850 25.1 5.6 42 73 1.1 33.9
01:40 1021 30.15 850 25.1 5.6 42 73 1.1 34
01:45 1021 30.15 850 25.1 5.5 41.9 73 1.1 34.1
01:50 1021 30.15 850 25.1 5.6 42.1 72 1 33.8
01:55 1021 30.15 850 25.1 5.7 42.3 72 1.1 34
02:00 1021 30.15 850 25.1 5.8 42.4 72 1.1 34
02:05 1021 30.15 850 25.1 5.8 42.5 72 1.1 34
02:10 1021 30.15 850 25.1 5.8 42.4 72 1.2 34.2
02:15 1021 30.15 850 25.1 5.9 42.6 71 1.1 34
02:20 1021 30.15 851 25.13 5.8 42.4 72 1.2 34.1
02:25 1021 30.15 851 25.13 5.6 42.2 72 0.9 33.7
02:30 1021 30.15 850 25.1 5.9 42.7 70 0.9 33.6
02:35 1021 30.15 850 25.1 6 42.8 70 1 33.9
02:40 1021 30.15 850 25.1 5.8 42.4 72 1.1 34
02:45 1021 30.15 850 25.1 5.4 41.8 73 1.1 33.9
02:50 1021 30.15 850 25.1 5.2 41.3 74 0.9 33.7
02:55 1021 30.15 851 25.13 5.2 41.3 73 0.7 33.3
03:00 1021 30.15 851 25.13 5.4 41.8 73 0.9 33.6
03:05 1021 30.15 851 25.13 5.5 41.8 72 0.9 33.6
03:10 1021 30.15 850 25.1 5.4 41.7 72 0.8 33.5
03:15 1021 30.15 850 25.1 5.6 42.1 70 0.6 33
03:20 1021 30.15 850 25.1 5.8 42.5 70 0.8 33.4
03:25 1021 30.15 851 25.13 5.8 42.5 70 0.7 33.2
03:30 1021 30.15 850 25.1 5.9 42.6 71 1 33.8
03:35 1022 30.18 851 25.13 5.8 42.4 71 1 33.8
03:40 1021 30.15 851 25.13 5.6 42.1 73 1.2 34.1
03:45 1021 30.15 850 25.1 5.4 41.7 74 1.1 33.9
03:50 1021 30.15 850 25.1 5.4 41.6 74 1 33.9
03:55 1021 30.15 850 25.1 5.4 41.8 73 1 33.7
04:00 1021 30.15 851 25.13 5.6 42.1 72 1 33.8
04:05 1022 30.18 851 25.13 5.8 42.4 71 0.9 33.7
04:10 1021 30.15 850 25.1 6 42.8 70 1 33.8
04:15 1021 30.15 850 25.1 6 42.9 70 1 33.9
04:20 1022 30.18 851 25.13 6 42.9 71 1.2 34.1
04:25 1022 30.18 851 25.13 6.1 42.9 71 1.2 34.2
04:30 1021 30.15 851 25.13 6 42.8 73 1.5 34.8
04:35 1021 30.15 850 25.1 5.9 42.6 74 1.7 35
04:40 1021 30.15 850 25.1 5.5 42 76 1.7 35.1
04:45 1021 30.15 851 25.13 5.3 41.6 77 1.6 34.8
04:50 1021 30.15 850 25.1 5.4 41.8 76 1.6 34.8
04:55 1021 30.15 850 25.1 5.4 41.8 77 1.7 35
05:00 1021 30.15 850 25.1 5.4 41.8 76 1.6 34.9
05:05 1021 30.15 850 25.1 5.4 41.7 77 1.7 35
05:10 1021 30.15 850 25.1 5.3 41.6 76 1.5 34.7
05:15 1021 30.15 850 25.1 5.4 41.7 75 1.4 34.4
05:20 1021 30.15 850 25.1 5.6 42 77 1.8 35.2
05:25 1021 30.15 850 25.1 5.5 42 77 1.9 35.4
05:30 1021 30.15 850 25.1 5.6 42 77 1.8 35.2
05:35 1021 30.15 850 25.1 5.5 42 77 1.8 35.3
05:40 1021 30.15 850 25.1 5.5 41.9 77 1.8 35.2
05:45 1021 30.15 850 25.1 5.5 41.9 77 1.7 35.1
05:50 1021 30.15 850 25.1 5.6 42 77 1.9 35.4
05:55 1022 30.18 851 25.13 5.6 42 76 1.8 35.2
06:00 1021 30.15 851 25.13 5.8 42.4 75 1.8 35.2
06:05 1021 30.15 850 25.1 5.8 42.4 76 1.8 35.3
06:10 1021 30.15 851 25.13 5.8 42.4 76 2 35.6
06:15 1021 30.15 851 25.13 5.8 42.4 78 2.2 35.9
06:20 1021 30.15 851 25.13 5.5 41.8 80 2.2 36
06:25 1021 30.15 851 25.13 5.3 41.6 81 2.3 36.1
06:30 1021 30.15 850 25.1 5.2 41.3 82 2.3 36.1
06:35 1021 30.15 851 25.13 5.2 41.3 81 2.2 36
06:40 1021 30.15 851 25.13 5.3 41.6 80 2.2 36
06:45 1021 30.15 851 25.13 5.6 42 80 2.4 36.4
06:50 1021 30.15 851 25.13 5.6 42.1 80 2.5 36.5
06:55 1021 30.15 851 25.13 5.7 42.2 80 2.5 36.6
07:00 1021 30.15 851 25.13 5.7 42.2 80 2.5 36.6
07:05 1021 30.15 851 25.13 5.8 42.5 80 2.6 36.7
07:10 1022 30.18 851 25.13 6.1 43 79 2.7 36.8
07:15 1021 30.15 851 25.13 6.2 43.1 78 2.6 36.6
07:20 1021 30.15 851 25.13 6.1 43 78 2.6 36.6
07:25 1021 30.15 851 25.13 6.3 43.4 77 2.6 36.7
07:30 1021 30.15 851 25.13 6.5 43.7 77 2.7 36.9
07:35 1022 30.18 851 25.13 6.6 43.9 77 2.8 37.1
07:40 1021 30.15 851 25.13 6.7 44.1 76 2.8 37
07:45 1022 30.18 851 25.13 6.9 44.5 75 2.9 37.2
07:50 1022 30.18 851 25.13 7.2 45 74 2.8 37.1
07:55 1022 30.18 851 25.13 7.3 45.2 74 2.9 37.3
08:00 1022 30.18 851 25.13 7.5 45.4 73 2.9 37.3
08:05 1021 30.15 851 25.13 7.9 46.2 71 3 37.3
08:10 1021 30.15 851 25.13 8.1 46.5 68 2.6 36.7
08:15 1022 30.18 851 25.13 7.8 46.1 70 2.7 36.9
08:20 1021 30.15 851 25.13 7.9 46.3 68 2.5 36.4
08:25 1021 30.15 851 25.13 8.4 47.1 66 2.5 36.5
08:30 1021 30.15 851 25.13 9 48.2 64 2.5 36.5
08:35 1021 30.15 851 25.13 9.4 48.9 61 2.3 36.2
08:40 1021 30.15 851 25.13 9.8 49.6 61 2.7 36.9
08:45 1021 30.15 851 25.13 10.2 50.4 59 2.6 36.7
08:50 1021 30.15 851 25.13 10.5 50.9 59 2.9 37.2
08:55 1021 30.15 851 25.13 10.6 51 59 2.9 37.2
09:00 1022 30.18 851 25.13 10.6 51.1 59 3 37.4
09:05 1022 30.18 851 25.13 10.3 50.5 61 3.2 37.7
09:10 1022 30.18 851 25.13 10.4 50.7 59 2.8 37.1
09:15 1022 30.18 851 25.13 10.5 50.8 59 2.9 37.2
09:20 1022 30.18 851 25.13 10.6 51.1 59 2.9 37.2
09:25 1022 30.18 851 25.13 11 51.8 58 3.1 37.6
09:30 1022 30.18 851 25.13 10.5 50.8 60 3 37.4
09:35 1022 30.18 851 25.13 10.6 51 58 2.7 36.8
09:40 1022 30.18 851 25.13 10.6 51 60 3.2 37.8
09:45 1022 30.18 851 25.13 10 50 61 2.9 37.2
09:50 1022 30.18 851 25.13 10.5 50.9 59 3 37.4
09:55 1022 30.18 851 25.13 10.6 51.1 60 3.2 37.8
10:00 1021 30.15 851 25.13 10.7 51.2 58 2.9 37.2
10:05 1021 30.15 851 25.13 11.1 51.9 56 2.7 36.8
10:10 1022 30.18 851 25.13 11 51.9 57 2.9 37.2
10:15 1022 30.18 851 25.13 11.4 52.6 53 2.3 36.1
10:20 1022 30.18 851 25.13 12.2 53.9 51 2.4 36.3
10:25 1022 30.18 851 25.13 12.6 54.7 51 2.8 37.1
10:30 1021 30.15 851 25.13 12.9 55.2 47 2 35.5
10:35 1021 30.15 851 25.13 13.7 56.7 48 2.9 37.2
10:40 1021 30.15 851 25.13 12.8 55.1 49 2.5 36.6
10:45 1021 30.15 850 25.1 13.2 55.8 49 2.7 36.9
10:50 1021 30.15 850 25.1 13.2 55.8 48 2.5 36.5
10:55 1021 30.15 850 25.1 13.4 56.1 47 2.4 36.3
11:00 1021 30.15 850 25.1 14.2 57.5 42 1.5 34.8
11:05 1021 30.15 850 25.1 15 59 40 1.6 34.9
11:10 1021 30.15 850 25.1 15.5 59.8 40 1.9 35.4
11:15 1021 30.15 850 25.1 15 59.1 39 1.4 34.6
11:20 1021 30.15 850 25.1 15.3 59.5 39 1.6 34.8
11:25 1021 30.15 850 25.1 16.1 60.9 35 0.5 33
11:30 1021 30.15 850 25.1 16.7 62.1 36 1.5 34.7
11:35 1021 30.15 850 25.1 16.2 61.2 36 1.4 34.6
11:40 1020 30.12 850 25.1 16.8 62.3 38 2.5 36.5
11:45 1020 30.12 850 25.1 16.3 61.3 38 1.9 35.5
11:50 1020 30.12 850 25.1 16.4 61.5 35 1.2 34.1
11:55 1020 30.12 850 25.1 16.9 62.5 35 1.6 34.8
12:00 1020 30.12 850 25.1 16.8 62.2 38 2.3 36.2
12:05 1020 30.12 849 25.07 16.5 61.6 39 2.5 36.5
12:10 1020 30.12 849 25.07 16.1 61 39 2.3 36.1
12:15 1020 30.12 849 25.07 16.8 62.2 39 2.9 37.1
12:20 1020 30.12 849 25.07 17.3 63.2 36 2.1 35.7
12:25 1020 30.12 849 25.07 18.2 64.7 32 1.5 34.7
12:30 1020 30.12 849 25.07 17.3 63.2 34 1.3 34.3
12:35 1020 30.12 849 25.07 17.8 64 32 0.9 33.7
12:40 1020 30.12 849 25.07 18.3 65 28 -0.2 31.6
12:45 1020 30.12 849 25.07 17.4 63.3 32 0.6 33.1
12:50 1020 30.12 849 25.07 18.2 64.7 30 0.5 32.8
12:55 1020 30.12 849 25.07 18.7 65.7 29 0.4 32.7
13:00 1020 30.12 849 25.07 18 64.5 31 0.8 33.5
13:05 1020 30.12 849 25.07 18.4 65.1 29 0.2 32.4
13:10 1020 30.12 849 25.07 18.6 65.4 28 0.1 32.1
13:15 1020 30.12 849 25.07 18.4 65.2 31 1.3 34.3
13:20 1020 30.12 849 25.07 18.7 65.6 31 1.2 34.2
13:25 1020 30.12 849 25.07 19.2 66.5 30 1.4 34.5
13:30 1019 30.09 849 25.07 19.4 66.9 29 1.2 34.2
13:35 1019 30.09 849 25.07 19.4 66.8 26 -0.5 31.2
13:40 1019 30.09 849 25.07 19.2 66.5 25 -1.4 29.5
13:45 1019 30.09 849 25.07 18.8 65.9 22 -3 26.6
13:50 1019 30.09 848 25.04 18.9 66 25 -1.3 29.7
13:55 1019 30.09 848 25.04 18.9 66.1 26 -1 30.2
14:00 1019 30.09 848 25.04 19.2 66.5 25 -1.1 30.1
14:05 1019 30.09 848 25.04 19 66.2 27 -0.4 31.3
14:10 1019 30.09 848 25.04 18.4 65 30 0.5 32.8
14:15 1019 30.09 848 25.04 17.6 63.7 32 0.8 33.4
14:20 1019 30.09 848 25.04 17.9 64.2 28 -0.6 30.9
14:25 1019 30.09 848 25.04 18.6 65.5 29 0.2 32.3
14:30 1019 30.09 848 25.04 18.8 65.9 30 0.9 33.6
14:35 1019 30.09 848 25.04 18.9 66.1 28 0.4 32.7
14:40 1019 30.09 848 25.04 19.2 66.6 27 -0.3 31.5
14:45 1019 30.09 848 25.04 19.9 67.8 25 -0.8 30.6
14:50 1019 30.09 848 25.04 20.6 69.1 24 -0.2 31.6
14:55 1019 30.09 848 25.04 19.7 67.5 25 -0.5 31.1
15:00 1019 30.09 848 25.04 19.9 67.8 26 -0.1 31.9
15:05 1019 30.09 848 25.04 19.6 67.2 27 0.4 32.8
15:10 1018 30.06 848 25.04 19.5 67.1 26 -0.4 31.3
15:15 1018 30.06 848 25.04 19.4 67 28 0.5 32.8
15:20 1018 30.06 848 25.04 19.3 66.8 29 0.8 33.4
15:25 1018 30.06 848 25.04 19.1 66.3 29 0.7 33.2
15:30 1018 30.06 848 25.04 19 66.3 29 0.8 33.4
15:35 1018 30.06 848 25.04 18.9 66 30 1 33.7
15:40 1018 30.06 847 25.01 19.2 66.5 29 0.7 33.3
15:45 1018 30.06 847 25.01 18.9 66 30 1 33.7
15:50 1018 30.06 847 25.01 18.6 65.5 30 0.9 33.6
15:55 1018 30.06 847 25.01 18.8 65.9 31 1.3 34.4
16:00 1018 30.06 847 25.01 19 66.1 31 1.4 34.6
16:05 1018 30.06 847 25.01 19 66.1 31 1.8 35.3
16:10 1018 30.06 847 25.01 18.6 65.4 33 2 35.5
16:15 1018 30.06 847 25.01 18.3 64.9 33 1.9 35.4
16:20 1018 30.06 847 25.01 18.1 64.6 34 2.1 35.7
16:25 1018 30.06 847 25.01 18 64.4 34 2 35.5
16:30 1018 30.06 847 25.01 17.6 63.7 35 2.2 35.9
16:35 1018 30.06 847 25.01 17.7 63.8 34 1.9 35.4
16:40 1018 30.06 847 25.01 17.6 63.6 36 2.6 36.8
16:45 1018 30.06 847 25.01 17.3 63.1 37 2.7 36.9
16:50 1018 30.06 847 25.01 17.2 63 37 2.4 36.3
16:55 1018 30.06 847 25.01 17 62.5 38 2.7 36.9
17:00 1018 30.06 847 25.01 16.8 62.2 39 2.7 36.8
17:05 1018 30.06 847 25.01 16.6 61.9 39 2.6 36.7
17:10 1018 30.06 847 25.01 16.7 62 38 2.4 36.3
17:15 1018 30.06 847 25.01 16.6 61.9 38 2.5 36.5
17:20 1018 30.06 847 25.01 16.5 61.7 39 2.5 36.4
17:25 1018 30.06 847 25.01 16.5 61.6 39 2.4 36.4
17:30 1018 30.06 847 25.01 16.4 61.4 39 2.4 36.3
17:35 1018 30.06 847 25.01 16.2 61.1 39 2.2 35.9
17:40 1018 30.06 847 25.01 16.1 60.9 38 2 35.5
17:45 1018 30.06 847 25.01 15.9 60.7 38 1.8 35.3
17:50 1018 30.06 847 25.01 15.8 60.5 39 1.9 35.4
17:55 1018 30.06 847 25.01 15.7 60.2 39 1.8 35.3
18:00 1018 30.06 847 25.01 15.6 60 39 1.6 34.9
18:05 1018 30.06 847 25.01 15.5 59.8 39 1.6 34.8
18:10 1018 30.06 847 25.01 15.3 59.6 39 1.4 34.6
18:15 1018 30.06 847 25.01 15.2 59.3 39 1.3 34.4
18:20 1018 30.06 847 25.01 15.1 59.1 39 1.4 34.6
18:25 1018 30.06 847 25.01 15 59 40 1.6 35
18:30 1018 30.06 847 25.01 14.8 58.7 41 1.9 35.3
18:35 1018 30.06 847 25.01 14.6 58.3 42 2.1 35.7
18:40 1018 30.06 847 25.01 14.5 58 44 2.3 36.2
18:45 1018 30.06 847 25.01 14.4 57.8 44 2.3 36.1
18:50 1018 30.06 847 25.01 14.3 57.7 44 2.3 36.1
18:55 1018 30.06 847 25.01 14.2 57.6 44 2.3 36.1
19:00 1018 30.06 848 25.04 14.2 57.5 44 2.3 36.2
19:05 1018 30.06 848 25.04 14.2 57.5 44 2.3 36.2
19:10 1018 30.06 848 25.04 14.1 57.4 45 2.3 36.2
19:15 1018 30.06 848 25.04 14.1 57.3 45 2.4 36.3
19:20 1018 30.06 848 25.04 14 57.2 45 2.5 36.4
19:25 1018 30.06 848 25.04 13.9 57.1 46 2.6 36.7
19:30 1018 30.06 848 25.04 13.9 57 46 2.5 36.5
19:35 1018 30.06 848 25.04 13.9 57 46 2.5 36.6
19:40 1018 30.06 848 25.04 13.8 56.9 47 2.7 36.8
19:45 1018 30.06 848 25.04 13.8 56.9 47 2.7 36.9
19:50 1018 30.06 848 25.04 13.8 56.9 47 2.7 36.9
19:55 1018 30.06 848 25.04 13.8 56.9 47 2.9 37.1
20:00 1018 30.06 848 25.04 13.7 56.7 47 2.8 37.1
20:05 1018 30.06 848 25.04 13.7 56.6 48 3 37.4
20:10 1018 30.06 848 25.04 13.6 56.5 49 3.2 37.7
20:15 1018 30.06 848 25.04 13.5 56.3 50 3.3 37.9
20:20 1018 30.06 848 25.04 13.4 56.1 50 3.4 38
20:25 1018 30.06 848 25.04 13.3 55.9 51 3.5 38.3
20:30 1018 30.06 848 25.04 13.2 55.8 52 3.7 38.6
20:35 1018 30.06 848 25.04 13.1 55.6 53 3.7 38.7
20:40 1018 30.06 848 25.04 13.1 55.5 53 3.8 38.9
20:45 1018 30.06 848 25.04 12.9 55.3 54 3.9 39
20:50 1018 30.06 848 25.04 12.9 55.1 54 3.9 39
20:55 1018 30.06 847 25.01 12.7 54.9 55 4 39.1
21:00 1018 30.06 847 25.01 12.6 54.8 55 4 39.1
21:05 1018 30.06 847 25.01 12.5 54.5 56 4 39.2
21:10 1018 30.06 847 25.01 12.4 54.3 57 4.1 39.3
21:15 1018 30.06 847 25.01 12.3 54.1 57 4 39.1
21:20 1018 30.06 847 25.01 12.2 54 57 4 39.2
21:25 1018 30.06 847 25.01 12.1 53.9 57 4 39.2
21:30 1018 30.06 847 25.01 12 53.6 58 4.1 39.4
21:35 1018 30.06 847 25.01 11.9 53.4 59 4.1 39.5
21:40 1018 30.06 847 25.01 11.8 53.2 59 4.2 39.6
21:45 1018 30.06 847 25.01 11.6 52.9 60 4.2 39.6
21:50 1018 30.06 847 25.01 11.6 52.8 61 4.2 39.6
21:55 1018 30.06 847 25.01 11.5 52.7 61 4.3 39.7
22:00 1018 30.06 847 25.01 11.4 52.6 62 4.3 39.8
22:05 1018 30.06 847 25.01 11.3 52.4 62 4.3 39.8
22:10 1018 30.06 847 25.01 11.3 52.3 63 4.4 39.9
22:15 1018 30.06 847 25.01 11.2 52.1 63 4.4 39.9
22:20 1018 30.06 847 25.01 11.1 52 63 4.5 40.1
22:25 1018 30.06 847 25.01 11 51.8 64 4.5 40.1
22:30 1018 30.06 847 25.01 10.9 51.7 65 4.6 40.2
22:35 1018 30.06 847 25.01 10.9 51.7 64 4.5 40.2
22:40 1018 30.06 847 25.01 10.9 51.6 65 4.6 40.2
22:45 1018 30.06 847 25.01 11 51.8 65 4.7 40.4
22:50 1018 30.06 847 25.01 10.9 51.6 65 4.7 40.5
22:55 1018 30.06 847 25.01 10.9 51.6 65 4.7 40.5
23:00 1018 30.06 847 25.01 11 51.7 65 4.7 40.5
23:05 1018 30.06 847 25.01 11 51.7 65 4.8 40.6
23:10 1018 30.06 847 25.01 10.9 51.7 66 4.9 40.8
23:15 1018 30.06 847 25.01 10.9 51.6 67 4.9 40.9
23:20 1018 30.06 847 25.01 10.9 51.6 66 4.9 40.9
23:25 1018 30.06 847 25.01 10.9 51.7 67 5 41
23:30 1018 30.06 847 25.01 10.9 51.6 67 5 41
23:35 1018 30.06 847 25.01 10.9 51.6 67 5 41.1
23:40 1017 30.03 847 25.01 10.8 51.5 68 5.1 41.2
23:45 1017 30.03 847 25.01 10.8 51.4 68 5.1 41.3
23:50 1017 30.03 847 25.01 10.7 51.3 68 5.2 41.3
23:55 1017 30.03 847 25.01 10.6 51.1 69 5.1 41.2
24:00 1017 30.03 846 24.98 10.7 51.2 68 5.1 41.2